Time;durP1;ratioP1;P1;durP2;ratioP2;P2;SDS_P1;SDS_P2;PMS_P1;PMS_P2;Temp;Humidity;BMP_temperature;BMP_pressure;BME280_temperature;BME280_humidity;BME280_pressure;Samples;Min_cycle;Max_cycle;Signal;HPM_P1;HPM_P2
2024/01/14 00:00:42;;;;;;;15.65;8.95;;;;;;;;;;10388636;22;20094;-88
2024/01/14 00:38:55;;;;;;;11.95;6.30;;;;;;;;;;10342078;22;20024;-88
2024/01/14 00:42:58;;;;;;;7.80;3.40;;;;;;;;;;10311354;23;20515;-86
2024/01/14 00:47:02;;;;;;;15.88;8.35;;;;;;;;;;10337660;23;20055;-87
2024/01/14 00:51:05;;;;;;;10.55;5.63;;;;;;;;;;10337133;23;20103;-89
2024/01/14 00:55:10;;;;;;;16.02;7.68;;;;;;;;;;10310759;23;20108;-87
2024/01/14 00:59:14;;;;;;;16.73;8.40;;;;;;;;;;10310914;23;20024;-87
2024/01/14 01:03:17;;;;;;;14.25;7.28;;;;;;;;;;10310937;23;20020;-87
2024/01/14 01:07:20;;;;;;;13.70;7.53;;;;;;;;;;10310635;23;20341;-87
2024/01/14 01:11:28;;;;;;;14.18;7.88;;;;;;;;;;10310389;23;20024;-87
2024/01/14 01:15:34;;;;;;;11.20;7.00;;;;;;;;;;10310808;23;20475;-87
2024/01/14 01:19:37;;;;;;;12.02;6.07;;;;;;;;;;10329911;23;20026;-87
2024/01/14 01:23:39;;;;;;;15.32;7.15;;;;;;;;;;10331967;23;20031;-86
2024/01/14 01:27:45;;;;;;;11.73;6.40;;;;;;;;;;10332267;23;20020;-86
2024/01/14 01:31:49;;;;;;;12.90;7.57;;;;;;;;;;10333659;23;20028;-86
2024/01/14 01:35:52;;;;;;;13.15;7.63;;;;;;;;;;10329919;23;20392;-90
2024/01/14 01:39:56;;;;;;;16.58;8.07;;;;;;;;;;10332515;23;20213;-88
2024/01/14 01:44:02;;;;;;;13.38;7.60;;;;;;;;;;10332458;23;20024;-88
2024/01/14 01:48:06;;;;;;;14.55;8.15;;;;;;;;;;10312046;23;20448;-90
2024/01/14 01:56:20;;;;;;;12.07;7.00;;;;;;;;;;10339922;22;20522;-90
2024/01/14 02:00:27;;;;;;;17.02;8.57;;;;;;;;;;10340114;23;20016;-88
2024/01/14 02:13:05;;;;;;;12.98;7.38;;;;;;;;;;10340094;22;20448;-90
2024/01/14 02:17:14;;;;;;;12.85;6.68;;;;;;;;;;10313781;23;20122;-88
2024/01/14 02:21:21;;;;;;;17.15;7.78;;;;;;;;;;10329648;23;20019;-88
2024/01/14 02:25:26;;;;;;;15.75;8.60;;;;;;;;;;10356685;23;20020;-88
2024/01/14 02:46:34;;;;;;;17.20;8.52;;;;;;;;;;10289191;23;20353;-89
2024/01/14 02:50:44;;;;;;;15.93;8.77;;;;;;;;;;10305525;23;20347;-89
2024/01/14 02:54:53;;;;;;;17.38;8.98;;;;;;;;;;10214476;23;20024;-88
2024/01/14 02:59:13;;;;;;;18.67;8.63;;;;;;;;;;10289039;23;20040;-88
2024/01/14 03:21:00;;;;;;;18.55;10.13;;;;;;;;;;10342013;22;20075;-88
2024/01/14 03:25:03;;;;;;;15.85;9.63;;;;;;;;;;10339125;23;20017;-91
2024/01/14 03:29:06;;;;;;;18.30;9.43;;;;;;;;;;10338691;23;20318;-91
2024/01/14 03:33:09;;;;;;;13.15;7.30;;;;;;;;;;10338460;23;20143;-87
2024/01/14 03:37:13;;;;;;;14.50;8.13;;;;;;;;;;10338165;23;20543;-88
2024/01/14 03:41:16;;;;;;;16.67;8.80;;;;;;;;;;10311329;23;20446;-88
2024/01/14 03:53:54;;;;;;;15.23;8.00;;;;;;;;;;10342999;22;20028;-86
2024/01/14 03:57:58;;;;;;;15.32;7.60;;;;;;;;;;10338389;23;20039;-87
2024/01/14 04:02:02;;;;;;;13.50;7.63;;;;;;;;;;10337698;23;20016;-87
2024/01/14 04:06:06;;;;;;;21.15;10.07;;;;;;;;;;10337701;23;20436;-86
2024/01/14 04:10:12;;;;;;;15.15;8.27;;;;;;;;;;10337503;23;20040;-87
2024/01/14 04:14:15;;;;;;;16.85;9.15;;;;;;;;;;10311127;23;20028;-86
2024/01/14 04:18:19;;;;;;;18.70;8.57;;;;;;;;;;10311179;23;20028;-87
2024/01/14 04:22:22;;;;;;;14.77;7.90;;;;;;;;;;10310855;23;20077;-90
2024/01/14 04:26:28;;;;;;;15.90;8.20;;;;;;;;;;10311012;23;20101;-87
2024/01/14 04:30:34;;;;;;;14.82;8.30;;;;;;;;;;10311129;23;20452;-89
2024/01/14 04:34:40;;;;;;;15.60;8.60;;;;;;;;;;10311046;23;20020;-88
2024/01/14 04:38:44;;;;;;;15.95;8.13;;;;;;;;;;10310889;23;20024;-87
2024/01/14 04:42:52;;;;;;;16.58;8.85;;;;;;;;;;10310349;23;20095;-87
2024/01/14 04:46:56;;;;;;;16.35;9.18;;;;;;;;;;10353931;23;20087;-87
2024/01/14 04:50:59;;;;;;;13.88;7.40;;;;;;;;;;10310861;23;20048;-88
2024/01/14 04:55:03;;;;;;;13.25;7.95;;;;;;;;;;10309015;23;20397;-90
2024/01/14 04:59:10;;;;;;;15.38;8.43;;;;;;;;;;10308642;23;20376;-87
2024/01/14 05:03:13;;;;;;;11.80;7.45;;;;;;;;;;10308364;23;20056;-87
2024/01/14 05:07:17;;;;;;;16.80;7.00;;;;;;;;;;10308534;23;20090;-88
2024/01/14 05:11:20;;;;;;;12.68;6.75;;;;;;;;;;10308562;23;20031;-87
2024/01/14 05:15:28;;;;;;;11.93;7.05;;;;;;;;;;10308235;23;20024;-87
2024/01/14 05:19:34;;;;;;;12.00;6.95;;;;;;;;;;10308233;23;20070;-89
2024/01/14 05:23:38;;;;;;;11.63;6.95;;;;;;;;;;10308513;23;20103;-88
2024/01/14 05:27:42;;;;;;;20.00;11.32;;;;;;;;;;10309406;23;20367;-87
2024/01/14 05:31:49;;;;;;;11.82;6.65;;;;;;;;;;10336968;23;20023;-88
2024/01/14 05:35:52;;;;;;;13.43;8.05;;;;;;;;;;10310292;23;20358;-88
2024/01/14 05:39:55;;;;;;;11.40;6.05;;;;;;;;;;10310294;23;20371;-89
2024/01/14 05:43:59;;;;;;;13.98;8.32;;;;;;;;;;10220220;22;1616507;-87
2024/01/14 05:48:05;;;;;;;9.93;5.38;;;;;;;;;;10334915;23;20052;-90
2024/01/14 05:56:27;;;;;;;9.38;4.85;;;;;;;;;;10342599;22;20055;-88
2024/01/14 06:00:30;;;;;;;11.07;5.90;;;;;;;;;;10340081;23;20091;-90
2024/01/14 06:04:34;;;;;;;6.00;3.92;;;;;;;;;;10340688;23;20015;-90
2024/01/14 06:08:37;;;;;;;11.43;6.25;;;;;;;;;;10339809;23;20020;-91
2024/01/14 06:21:03;;;;;;;13.05;7.18;;;;;;;;;;10340218;22;20047;-87
2024/01/14 06:25:07;;;;;;;12.32;7.20;;;;;;;;;;10339063;23;20453;-90
2024/01/14 06:29:10;;;;;;;12.93;6.78;;;;;;;;;;10339546;23;20023;-89
2024/01/14 06:33:14;;;;;;;18.27;9.30;;;;;;;;;;10339523;23;20095;-88
2024/01/14 06:37:19;;;;;;;15.55;6.68;;;;;;;;;;10313115;23;20471;-86
2024/01/14 06:41:24;;;;;;;15.85;8.23;;;;;;;;;;10313068;23;20326;-89
2024/01/14 06:50:49;;;;;;;12.88;6.22;;;;;;;;;;10328747;22;20024;-89
2024/01/14 06:59:05;;;;;;;16.67;8.77;;;;;;;;;;10337605;22;20047;-89
2024/01/14 07:03:08;;;;;;;12.85;6.75;;;;;;;;;;10339375;23;20090;-88
2024/01/14 07:07:11;;;;;;;14.75;7.97;;;;;;;;;;10339153;23;20091;-88
2024/01/14 07:11:14;;;;;;;33.05;17.55;;;;;;;;;;10338346;23;20016;-88
2024/01/14 07:15:19;;;;;;;27.17;13.45;;;;;;;;;;10338208;23;20030;-88
2024/01/14 08:08:28;;;;;;;15.80;8.05;;;;;;;;;;10340426;22;20320;-87
2024/01/14 08:21:27;;;;;;;18.13;7.82;;;;;;;;;;10337604;22;20031;-88
2024/01/14 08:25:32;;;;;;;11.63;5.57;;;;;;;;;;10337580;23;20086;-88
2024/01/14 08:29:35;;;;;;;17.30;7.43;;;;;;;;;;10337817;23;20020;-89
2024/01/14 08:33:41;;;;;;;13.30;6.88;;;;;;;;;;10286511;23;20027;-89
2024/01/14 08:43:01;;;;;;;14.27;7.15;;;;;;;;;;10337567;23;20027;-88
2024/01/14 08:47:06;;;;;;;19.65;9.00;;;;;;;;;;10353978;23;20070;-89
2024/01/14 08:51:12;;;;;;;14.57;6.32;;;;;;;;;;10310832;23;20027;-89
2024/01/14 09:05:56;;;;;;;11.88;6.15;;;;;;;;;;10338200;23;20452;-90
2024/01/14 09:15:20;;;;;;;15.90;6.93;;;;;;;;;;10135027;23;20036;-89
2024/01/14 09:20:08;;;;;;;18.05;9.07;;;;;;;;;;10358902;23;20095;-90
2024/01/14 09:24:17;;;;;;;16.10;7.20;;;;;;;;;;10305616;23;20441;-90
2024/01/14 09:28:20;;;;;;;6.90;5.18;;;;;;;;;;10310012;23;20020;-90
2024/01/14 09:32:25;;;;;;;13.35;6.13;;;;;;;;;;10312383;23;20024;-90
2024/01/14 09:36:30;;;;;;;15.73;7.57;;;;;;;;;;10290544;23;20020;-90
2024/01/14 10:00:22;;;;;;;25.65;11.70;;;;;;;;;;10434811;22;20090;-89
2024/01/14 10:04:25;;;;;;;14.13;8.00;;;;;;;;;;10456181;22;20459;-90
2024/01/14 10:08:28;;;;;;;8.43;5.13;;;;;;;;;;10439108;22;20023;-90
2024/01/14 10:12:32;;;;;;;10.50;5.28;;;;;;;;;;10440009;22;20020;-91
2024/01/14 10:16:39;;;;;;;8.65;4.60;;;;;;;;;;10441983;22;20047;-90
2024/01/14 10:20:42;;;;;;;15.65;6.47;;;;;;;;;;10442178;22;20019;-91
2024/01/14 10:24:51;;;;;;;29.75;11.32;;;;;;;;;;10442348;22;20023;-89
2024/01/14 10:29:02;;;;;;;8.32;4.70;;;;;;;;;;10459794;22;20019;-89
2024/01/14 10:33:07;;;;;;;17.80;8.25;;;;;;;;;;10461445;22;20023;-90
2024/01/14 10:37:10;;;;;;;16.00;6.93;;;;;;;;;;10442021;22;20019;-91
2024/01/14 10:41:13;;;;;;;11.52;6.63;;;;;;;;;;10413751;22;20351;-90
2024/01/14 10:45:20;;;;;;;8.98;5.38;;;;;;;;;;10414215;22;20067;-91
2024/01/14 10:54:48;;;;;;;25.40;10.55;;;;;;;;;;10441830;22;20068;-91
2024/01/14 10:58:55;;;;;;;11.55;5.53;;;;;;;;;;10456492;22;20094;-91
2024/01/14 11:08:16;;;;;;;13.75;5.50;;;;;;;;;;10357319;22;20126;-91
2024/01/14 11:12:30;;;;;;;14.82;6.05;;;;;;;;;;10356339;23;20034;-92
2024/01/14 11:16:40;;;;;;;10.20;5.03;;;;;;;;;;10312595;23;20023;-92
2024/01/14 11:20:49;;;;;;;5.60;3.63;;;;;;;;;;10340749;23;20464;-92
2024/01/14 11:24:52;;;;;;;8.77;5.03;;;;;;;;;;10356660;23;20087;-92
2024/01/14 11:37:48;;;;;;;14.95;6.07;;;;;;;;;;10325502;22;20133;-92
2024/01/14 11:41:51;;;;;;;8.40;4.88;;;;;;;;;;10339150;23;20044;-90
2024/01/14 12:25:13;;;;;;;9.02;4.53;;;;;;;;;;10337089;22;20027;-89
2024/01/14 13:06:39;;;;;;;39.28;16.02;;;;;;;;;;10343299;22;20032;-91
2024/01/14 13:26:01;;;;;;;21.40;10.23;;;;;;;;;;10338267;23;20020;-91
2024/01/14 13:30:07;;;;;;;12.63;5.28;;;;;;;;;;10313336;23;20380;-92
2024/01/14 13:34:11;;;;;;;28.08;12.30;;;;;;;;;;10313263;23;20050;-90
2024/01/14 13:38:14;;;;;;;14.10;6.50;;;;;;;;;;10341073;22;20013;-92
2024/01/14 13:56:14;;;;;;;16.45;6.55;;;;;;;;;;10359468;22;20027;-91
2024/01/14 14:00:19;;;;;;;9.02;3.85;;;;;;;;;;10392774;22;20069;-91
2024/01/14 14:41:30;;;;;;;16.42;8.13;;;;;;;;;;10191574;23;20104;-90
2024/01/14 14:56:20;;;;;;;27.17;9.75;;;;;;;;;;10252681;22;20063;-90
2024/01/14 15:00:25;;;;;;;19.80;7.65;;;;;;;;;;10395215;22;20058;-93
2024/01/14 15:04:27;;;;;;;7.65;4.38;;;;;;;;;;10364456;22;20024;-94
2024/01/14 15:08:30;;;;;;;22.42;8.65;;;;;;;;;;10392756;22;20455;-92
2024/01/14 15:12:34;;;;;;;15.05;7.80;;;;;;;;;;10365212;22;20394;-93
2024/01/14 15:20:59;;;;;;;14.13;7.30;;;;;;;;;;10337285;22;20102;-93
2024/01/14 15:25:02;;;;;;;16.83;6.82;;;;;;;;;;10340318;23;20016;-90
2024/01/14 15:37:32;;;;;;;22.95;12.75;;;;;;;;;;10317050;22;20453;-94
2024/01/14 15:41:36;;;;;;;9.68;6.25;;;;;;;;;;10356581;23;20023;-92
2024/01/14 15:45:39;;;;;;;18.77;9.48;;;;;;;;;;10339527;23;20448;-92
2024/01/14 15:49:42;;;;;;;34.92;17.73;;;;;;;;;;10338873;23;20026;-91
2024/01/14 15:53:46;;;;;;;34.53;16.20;;;;;;;;;;10339503;23;20107;-92
2024/01/14 15:57:50;;;;;;;17.08;8.60;;;;;;;;;;10356159;23;20016;-93
2024/01/14 16:01:55;;;;;;;15.07;7.57;;;;;;;;;;10339442;22;20463;-92
2024/01/14 16:06:00;;;;;;;12.35;5.43;;;;;;;;;;10339269;23;20341;-90
2024/01/14 16:10:06;;;;;;;11.93;5.82;;;;;;;;;;10339175;23;20020;-92
2024/01/14 16:14:40;;;;;;;14.70;6.75;;;;;;;;;;10357549;23;20070;-93
2024/01/14 16:18:44;;;;;;;15.38;6.70;;;;;;;;;;10335937;22;20020;-92
2024/01/14 16:22:47;;;;;;;17.80;7.63;;;;;;;;;;10344348;23;20036;-91
2024/01/14 16:27:36;;;;;;;36.65;14.27;;;;;;;;;;10341389;22;20027;-89
2024/01/14 16:31:39;;;;;;;63.35;24.33;;;;;;;;;;10357601;23;20020;-90
2024/01/14 16:35:42;;;;;;;47.75;20.00;;;;;;;;;;10339939;23;20020;-89
2024/01/14 16:39:46;;;;;;;93.93;41.40;;;;;;;;;;10342032;23;20374;-89
2024/01/14 16:52:11;;;;;;;23.08;10.80;;;;;;;;;;10325739;22;20386;-91
2024/01/14 16:56:15;;;;;;;28.95;12.52;;;;;;;;;;10342464;23;20095;-93
2024/01/14 17:00:19;;;;;;;37.35;16.02;;;;;;;;;;10343405;23;20506;-93
2024/01/14 17:04:22;;;;;;;52.15;19.48;;;;;;;;;;10344698;23;20075;-94
2024/01/14 17:08:27;;;;;;;36.42;18.15;;;;;;;;;;10341027;23;20024;-95
2024/01/14 17:12:31;;;;;;;87.25;26.23;;;;;;;;;;10340519;23;20409;-93
2024/01/14 17:16:34;;;;;;;37.55;15.85;;;;;;;;;;10340111;23;20047;-90
2024/01/14 17:20:42;;;;;;;26.70;12.48;;;;;;;;;;10340789;23;20020;-93
2024/01/14 17:25:16;;;;;;;29.88;15.07;;;;;;;;;;10379134;22;20031;-94
2024/01/14 17:29:35;;;;;;;31.67;14.13;;;;;;;;;;10356822;23;20110;-93
2024/01/14 17:33:39;;;;;;;27.10;12.98;;;;;;;;;;10382270;22;20068;-93
2024/01/14 17:37:47;;;;;;;33.50;12.60;;;;;;;;;;10388459;22;20007;-91
2024/01/14 17:42:00;;;;;;;25.33;9.40;;;;;;;;;;10388236;22;20642;-92
2024/01/14 17:46:05;;;;;;;36.17;14.25;;;;;;;;;;10345326;22;20309;-94
2024/01/14 17:50:14;;;;;;;17.08;8.15;;;;;;;;;;10358215;23;20015;-92
2024/01/14 17:54:18;;;;;;;31.48;15.98;;;;;;;;;;10342097;23;20091;-91
2024/01/14 17:58:23;;;;;;;17.67;6.22;;;;;;;;;;10342324;23;20031;-91
2024/01/14 18:02:27;;;;;;;27.92;10.40;;;;;;;;;;10344766;23;20016;-92
2024/01/14 18:06:30;;;;;;;26.25;10.57;;;;;;;;;;10347476;22;20020;-91
2024/01/14 18:10:33;;;;;;;32.55;13.18;;;;;;;;;;10342214;23;20024;-92
2024/01/14 18:14:38;;;;;;;30.15;13.25;;;;;;;;;;10343602;23;20043;-92
2024/01/14 18:18:43;;;;;;;48.58;17.13;;;;;;;;;;10343174;23;20076;-90
2024/01/14 18:22:49;;;;;;;11.45;5.72;;;;;;;;;;10352863;22;20040;-92
2024/01/14 18:26:53;;;;;;;26.73;9.35;;;;;;;;;;10359758;23;20090;-90
2024/01/14 18:30:59;;;;;;;30.80;12.13;;;;;;;;;;10340625;23;20350;-92
2024/01/14 18:35:03;;;;;;;22.77;12.02;;;;;;;;;;10364223;23;20020;-91
2024/01/14 18:39:21;;;;;;;16.08;8.07;;;;;;;;;;10345493;23;20016;-95
2024/01/14 18:43:25;;;;;;;16.42;9.15;;;;;;;;;;10344875;23;20202;-93
2024/01/14 18:47:29;;;;;;;19.25;7.68;;;;;;;;;;10347000;23;20341;-94
2024/01/14 18:51:34;;;;;;;15.70;6.45;;;;;;;;;;10348965;22;20020;-94
2024/01/14 18:55:39;;;;;;;25.77;9.43;;;;;;;;;;10346269;23;20024;-94
2024/01/14 18:59:43;;;;;;;23.95;11.30;;;;;;;;;;10345704;23;20020;-94
2024/01/14 19:03:49;;;;;;;31.30;13.57;;;;;;;;;;10347579;23;20020;-92
2024/01/14 19:07:53;;;;;;;27.42;11.57;;;;;;;;;;10365503;23;20012;-90
2024/01/14 19:12:11;;;;;;;23.73;9.70;;;;;;;;;;10352603;22;20020;-91
2024/01/14 19:16:16;;;;;;;30.92;11.68;;;;;;;;;;10346273;23;20020;-91
2024/01/14 19:20:23;;;;;;;14.98;6.00;;;;;;;;;;10360972;23;20035;-91
2024/01/14 19:24:27;;;;;;;14.10;7.55;;;;;;;;;;10362323;23;20027;-93
2024/01/14 19:28:30;;;;;;;19.08;8.38;;;;;;;;;;10344581;23;20016;-93
2024/01/14 19:32:36;;;;;;;13.70;6.57;;;;;;;;;;10346575;23;20055;-90
2024/01/14 19:36:56;;;;;;;14.27;6.75;;;;;;;;;;10346081;23;20096;-90
2024/01/14 19:41:00;;;;;;;19.20;7.35;;;;;;;;;;10343459;23;20073;-90
2024/01/14 19:45:13;;;;;;;20.33;7.88;;;;;;;;;;10347591;22;20016;-93
2024/01/14 19:49:44;;;;;;;19.15;8.20;;;;;;;;;;10345376;23;20038;-94
2024/01/14 19:54:03;;;;;;;11.13;5.72;;;;;;;;;;10344633;23;20095;-90
2024/01/14 19:58:08;;;;;;;11.13;5.53;;;;;;;;;;10363404;23;20024;-92
2024/01/14 20:02:14;;;;;;;14.52;6.65;;;;;;;;;;10347353;23;20027;-93
2024/01/14 20:06:31;;;;;;;12.30;5.55;;;;;;;;;;10345547;23;20027;-91
2024/01/14 20:10:40;;;;;;;14.52;7.50;;;;;;;;;;10362971;23;20020;-92
2024/01/14 20:14:46;;;;;;;11.82;5.40;;;;;;;;;;10366030;23;20032;-91
2024/01/14 20:23:34;;;;;;;14.20;6.57;;;;;;;;;;10339564;23;20087;-92
2024/01/14 20:27:42;;;;;;;13.55;6.60;;;;;;;;;;10347344;23;20028;-94
2024/01/14 20:31:46;;;;;;;12.70;6.72;;;;;;;;;;10369343;23;20161;-91
2024/01/14 20:35:50;;;;;;;15.88;7.65;;;;;;;;;;10352146;23;20532;-90
2024/01/14 20:39:54;;;;;;;17.02;7.50;;;;;;;;;;10350727;23;20093;-93
2024/01/14 20:44:06;;;;;;;18.20;8.68;;;;;;;;;;10354669;23;20027;-92
2024/01/14 20:48:11;;;;;;;16.30;7.43;;;;;;;;;;10348898;23;20043;-92
2024/01/14 20:52:17;;;;;;;13.40;6.25;;;;;;;;;;10346057;23;20070;-93
2024/01/14 21:01:03;;;;;;;13.77;6.35;;;;;;;;;;10369528;23;20015;-91
2024/01/14 21:05:19;;;;;;;7.97;4.68;;;;;;;;;;10368504;23;20027;-95
2024/01/14 21:09:30;;;;;;;13.48;6.82;;;;;;;;;;10368869;23;20020;-90
2024/01/14 21:13:41;;;;;;;17.92;7.90;;;;;;;;;;10367012;23;20027;-90
2024/01/14 21:17:47;;;;;;;17.77;7.15;;;;;;;;;;10368293;23;20020;-91
2024/01/14 21:21:53;;;;;;;19.60;8.50;;;;;;;;;;10350380;23;20028;-91
2024/01/14 21:26:01;;;;;;;19.88;9.63;;;;;;;;;;10350418;23;20030;-91
2024/01/14 21:30:14;;;;;;;33.28;13.77;;;;;;;;;;10371577;22;20110;-91
2024/01/14 21:34:26;;;;;;;68.95;24.55;;;;;;;;;;10351896;23;20028;-92
2024/01/14 21:38:40;;;;;;;46.80;19.35;;;;;;;;;;10372647;23;20020;-91
2024/01/14 21:42:56;;;;;;;27.33;13.65;;;;;;;;;;10211236;23;20326;-91
2024/01/14 21:47:13;;;;;;;54.28;21.75;;;;;;;;;;10276879;23;20024;-90
2024/01/14 21:55:55;;;;;;;17.90;8.90;;;;;;;;;;10256689;23;20053;-90
2024/01/14 22:00:01;;;;;;;36.90;12.52;;;;;;;;;;10227016;23;20021;-90
2024/01/14 22:04:10;;;;;;;22.88;10.32;;;;;;;;;;10267667;23;20092;-90
2024/01/14 22:08:24;;;;;;;27.20;10.52;;;;;;;;;;10348270;23;20650;-90
2024/01/14 22:12:34;;;;;;;21.50;10.05;;;;;;;;;;10367911;23;20016;-89
2024/01/14 22:16:40;;;;;;;41.08;14.98;;;;;;;;;;10380418;22;20004;-89
2024/01/14 22:20:47;;;;;;;36.15;16.90;;;;;;;;;;10384520;22;20024;-90
2024/01/14 22:24:52;;;;;;;37.78;13.20;;;;;;;;;;10376860;23;20031;-92
2024/01/14 22:28:59;;;;;;;28.70;12.18;;;;;;;;;;10387817;23;20020;-89
2024/01/14 22:33:14;;;;;;;33.70;13.38;;;;;;;;;;10373651;23;20024;-90
2024/01/14 22:37:25;;;;;;;27.60;13.45;;;;;;;;;;10366064;23;20051;-91
2024/01/14 22:41:56;;;;;;;24.88;12.73;;;;;;;;;;10367180;23;20024;-91
2024/01/14 23:57:41;;;;;;;18.50;8.68;;;;;;;;;;10405267;22;20054;-90
